• Join FlightAware (Why Join?)
  • Login
  • US Flag 
06:32PM EDT


 

Airport Tracker/Info


-or-


 

Live Flight TrackerFlight Track Log ✈ AAL309 ✈ 07-May-2012 ✈ KORD - KRSW

Flight Track Log - Related Links

Times and Time Zones

All times are in EDT time to prevent confusion due to time zone crossing. See the AAL309 flight status page for this flight to view local times or setup timezone preferences in your user account.

Time Position Orientation Groundspeed Altitude Reporting Facility
EDT Latitude Longitude Course Direction KTS MPH feet Rate Location/Type
02:01PM 41.9177 -87.9000 339° North  Level FlightAware Approximate
02:01PM 41.9500 -87.9167 177° South 176 203 1,700  Level Chicago TRACON
02:06PM 41.6533 -87.8964 177° South 279 321 11,200 2,160 Climbing Chicago Center
02:07PM 41.5719 -87.8900 177° South 289 333 13,100 1,560 Climbing Chicago Center
02:08PM 41.4761 -87.8839 179° South 318 366 14,400 1,740 Climbing Chicago Center
02:09PM 41.3717 -87.8806 185° South 355 409 16,600 2,160 Climbing Chicago Center
02:10PM 41.2636 -87.8942 179° South 377 434 18,800 1,920 Climbing Chicago Center
02:11PM 41.1550 -87.8911 179° South 389 448 20,500 1,680 Climbing Chicago Center
02:12PM 41.0425 -87.8881 179° South 402 463 22,200 1,560 Climbing Chicago Center
02:13PM 40.9278 -87.8853 179° South 408 470 23,700 1,440 Climbing Chicago Center
02:14PM 40.8089 -87.8822 178° South 414 476 25,100 1,440 Climbing Chicago Center
02:15PM 40.6900 -87.8767 179° South 421 484 26,600 1,260 Climbing Chicago Center
02:16PM 40.5692 -87.8739 179° South 426 490 27,700 1,200 Climbing Chicago Center
02:18PM 40.2436 -87.8650 178° South 444 511 31,300 1,200 Climbing Indianapolis Center
02:19PM 40.1208 -87.8600 178° South 434 499 32,200 840 Climbing Indianapolis Center
02:20PM 40.0022 -87.8556 177° South 434 499 33,000 360 Climbing Indianapolis Center
02:21PM 39.8856 -87.8483 177° South 434 499 33,000  Level Indianapolis Center
02:22PM 39.7650 -87.8411 179° South 434 499 33,000  Level Indianapolis Center
02:23PM 39.6358 -87.8386 177° South 434 499 33,000  Level Indianapolis Center
02:24PM 39.5172 -87.8314 177° South 429 494 33,000  Level Indianapolis Center
02:25PM 39.4006 -87.8244 178° South 424 488 33,000  Level Indianapolis Center
02:26PM 39.2944 -87.8208 178° South 408 470 33,000  Level Indianapolis Center
02:27PM 39.1736 -87.8161 177° South 408 470 33,000  Level Indianapolis Center
02:28PM 39.0569 -87.8092 178° South 413 475 33,000  Level Indianapolis Center
02:29PM 38.9403 -87.8050 178° South 419 482 33,000  Level Indianapolis Center
02:30PM 38.8194 -87.8006 158° South 424 488 33,000  Level Indianapolis Center
02:31PM 38.7089 -87.7436 158° South 424 488 33,000  Level Indianapolis Center
02:32PM 38.5961 -87.6864 160° South 424 488 33,000  Level Indianapolis Center
02:33PM 38.4814 -87.6322 159° South 435 501 33,000  Level Indianapolis Center
02:34PM 38.3683 -87.5781 160° South 440 506 33,000  Level Indianapolis Center
02:35PM 38.2556 -87.5244 161° South 440 506 33,000  Level Indianapolis Center
02:36PM 38.1403 -87.4733 159° South 440 506 33,000  Level Indianapolis Center
02:37PM 38.0256 -87.4169 160° South 440 506 33,000  Level Indianapolis Center
02:38PM 37.9103 -87.3636 160° South 440 506 33,000  Level Indianapolis Center
02:39PM 37.7953 -87.3103 159° South 440 506 33,000  Level Indianapolis Center
02:41PM 37.5942 -87.2139 159° South 456 525 33,000  Level Memphis Center
02:42PM 37.4675 -87.1536 160° South 450 518 33,000  Level Memphis Center
02:43PM 37.3494 -87.0983 159° South 450 518 33,000  Level Memphis Center
02:44PM 37.2378 -87.0456 161° South 444 511 33,000  Level Memphis Center
02:45PM 37.1197 -86.9933 159° South 444 511 33,000  Level Memphis Center
02:46PM 37.0056 -86.9383 160° South 444 511 33,000  Level Memphis Center
02:47PM 36.8875 -86.8836 160° South 449 517 33,000  Level Memphis Center
02:48PM 36.7714 -86.8317 159° South 455 524 33,000  Level Memphis Center
02:49PM 36.6550 -86.7772 159° South 449 517 33,000  Level Memphis Center
02:50PM 36.5517 -86.7278 160° South 449 517 33,000  Level Memphis Center
02:51PM 36.4333 -86.6736 161° South 454 522 33,000  Level Memphis Center
02:52PM 36.3150 -86.6225 160° South 454 522 33,000  Level Memphis Center
02:53PM 36.1839 -86.5642 160° South 454 522 33,000  Level Memphis Center
02:54PM 36.0678 -86.5131 160° South 454 522 33,000  Level Memphis Center
02:55PM 35.9492 -86.4597 160° South 449 517 33,000  Level Memphis Center
02:56PM 35.8350 -86.4086 160° South 449 517 33,000  Level Memphis Center
02:57PM 35.7167 -86.3556 160° South 449 517 33,000  Level Memphis Center
02:58PM 35.6181 -86.3125 160° South 458 527 33,000  Level Atlanta Center
02:59PM 35.5022 -86.2608 160° South 455 524 33,000  Level Atlanta Center
03:00PM 35.3842 -86.2092 160° South 455 524 33,000  Level Atlanta Center
03:01PM 35.2536 -86.1522 159° South 450 518 33,000  Level Atlanta Center
03:02PM 35.1481 -86.1039 160° South 456 525 33,000  Level Atlanta Center
03:03PM 35.0300 -86.0528 161° South 451 519 33,000  Level Atlanta Center
03:04PM 34.8972 -85.9964 170° South 451 519 33,000  Level Atlanta Center
03:05PM 34.7892 -85.9736 172° South 445 512 33,000  Level Atlanta Center
03:06PM 34.6622 -85.9531 172° South 451 519 33,000  Level Atlanta Center
03:07PM 34.5372 -85.9325 173° South 456 525 33,000  Level Atlanta Center
03:08PM 34.3958 -85.9117 172° South 463 533 33,000  Level Atlanta Center
03:09PM 34.2728 -85.8914 162° South 463 533 33,000  Level Atlanta Center
03:10PM 34.1753 -85.8542 161° South 463 533 33,000  Level Atlanta Center
03:11PM 34.0342 -85.7961 161° South 453 521 33,000  Level Atlanta Center
03:12PM 33.9139 -85.7461 161° South 453 521 33,000  Level Atlanta Center
03:13PM 33.7936 -85.6961 160° South 458 527 33,000  Level Atlanta Center
03:14PM 33.6753 -85.6439 161° South 460 529 33,000  Level Atlanta Center
03:15PM 33.5528 -85.5942 161° South 460 529 33,000  Level Atlanta Center
03:16PM 33.4322 -85.5447 159° South 465 535 33,000  Level Atlanta Center
03:17PM 33.3139 -85.4906 162° South 459 528 33,000  Level Atlanta Center
03:18PM 33.1936 -85.4439 161° South 464 534 33,000  Level Atlanta Center
03:19PM 33.0772 -85.3947 159° South 455 524 33,000  Level Atlanta Center
03:20PM 32.9586 -85.3411 161° South 455 524 33,000  Level Atlanta Center
03:21PM 32.8528 -85.2975 161° South 455 524 33,000  Level Atlanta Center
03:22PM 32.7300 -85.2464 161° South 455 524 33,000  Level Atlanta Center
03:23PM 32.6117 -85.1978 161° South 455 524 33,000  Level Atlanta Center
03:24PM 32.4908 -85.1494 161° South 457 526 33,000  Level Atlanta Center
03:25PM 32.3703 -85.1011 161° South 462 532 33,000  Level Atlanta Center
03:27PM 32.1447 -85.0075 161° South 458 527 33,000  Level Jacksonville Center
03:28PM 32.0222 -84.9583 161° South 463 533 33,000  Level Jacksonville Center
03:29PM 31.9042 -84.9092 162° South 458 527 33,000  Level Jacksonville Center
03:30PM 31.7733 -84.8597 161° South 458 527 33,000  Level Jacksonville Center
03:31PM 31.6614 -84.8133 161° South 465 535 33,000  Level Jacksonville Center
03:32PM 31.5450 -84.7672 161° South 460 529 33,000  Level Jacksonville Center
03:33PM 31.4228 -84.7186 162° South 460 529 33,000  Level Jacksonville Center
03:34PM 31.3042 -84.6725 161° South 460 529 33,000  Level Jacksonville Center
03:35PM 31.1839 -84.6239 160° South 460 529 33,000  Level Jacksonville Center
03:36PM 31.0633 -84.5733 162° South 460 529 33,000  Level Jacksonville Center
03:37PM 30.9450 -84.5275 161° South 460 529 33,000  Level Jacksonville Center
03:38PM 30.8244 -84.4794 158° South 460 529 33,000  Level Jacksonville Center
03:41PM 30.4633 -84.3144 150° Southeast 454 522 33,000 -60 Level Jacksonville Center
03:42PM 30.3514 -84.2406 151° Southeast 454 522 32,900  Descending Jacksonville Center
03:43PM 30.2414 -84.1692 151° Southeast 454 522 33,000  Climbing Jacksonville Center
03:44PM 30.1292 -84.0983 151° Southeast 454 522 33,000  Level Jacksonville Center
03:45PM 30.0150 -84.0247 150° Southeast 459 528 33,000 -60 Level Jacksonville Center
03:47PM 29.7908 -83.8786 150° Southeast 459 528 32,900  Descending Jacksonville Center
03:48PM 29.6767 -83.8033 151° Southeast 459 528 33,000  Climbing Jacksonville Center
03:49PM 29.5603 -83.7306 151° Southeast 459 528 33,000  Level Jacksonville Center
03:50PM 29.4458 -83.6581 150° Southeast 459 528 33,000  Level Jacksonville Center
03:51PM 29.3336 -83.5833 151° Southeast 464 534 33,000  Level Jacksonville Center
03:52PM 29.2169 -83.5089 152° Southeast 469 540 33,000  Level Jacksonville Center
03:53PM 29.1006 -83.4367 150° Southeast 469 540 33,000  Level Jacksonville Center
03:54PM 28.9881 -83.3625 157° South 474 545 33,000  Level Jacksonville Center
03:55PM 28.8672 -83.3028 164° South 469 540 33,000  Level Jacksonville Center
03:57PM 28.6758 -83.2383 163° South 478 550 33,000  Level Miami Center
03:58PM 28.5383 -83.1903 163° South 472 543 33,000 -780 Level Miami Center
03:59PM 28.4131 -83.1456 161° South 472 543 31,500 -1,860 Descending Miami Center
04:00PM 28.2900 -83.0986 162° South 472 543 29,300 -1,980 Descending Miami Center
04:01PM 28.1650 -83.0517 162° South 472 543 27,600 -1,200 Descending Miami Center
04:02PM 28.0378 -83.0047 157° South 472 543 27,000 -360 Descending Miami Center
04:03PM 27.9192 -82.9489 158° South 472 543 27,000  Level Miami Center
04:04PM 27.8003 -82.8958 149° Southeast 467 537 27,000 -300 Level Miami Center
04:05PM 27.6889 -82.8194 153° Southeast 467 537 26,400 -1,320 Descending Miami Center
04:06PM 27.5706 -82.7503 151° Southeast 472 543 24,400 -1,980 Descending Miami Center
04:07PM 27.4628 -82.6839 152° Southeast 460 529 22,500 -1,920 Descending Miami Center
04:08PM 27.3628 -82.6250 151° Southeast 450 518 20,600 -2,100 Descending Miami Center
04:09PM 27.2467 -82.5539 152° Southeast 444 511 18,400 -1,980 Descending Miami Center
04:10PM 27.1447 -82.4928 153° Southeast 437 503 16,700 -1,800 Descending Miami Center
04:11PM 27.0447 -82.4344 151° Southeast 419 482 14,900 -1,800 Descending Miami Center
04:12PM 26.9511 -82.3764 152° Southeast 406 467 13,100 -1,740 Descending Miami Center
04:13PM 26.8653 -82.3258 151° Southeast 396 456 11,500 -1,080 Descending Miami Center
04:14PM 26.7797 -82.2728 144° Southeast 377 434 11,000 -540 Descending Miami Center
04:15PM 26.7047 -82.2114 147° Southeast 348 400 10,500 -960 Descending Miami Center
04:16PM 26.6375 -82.1619 143° Southeast 317 365 9,200 -1,440 Descending Miami Center
04:17PM 26.5728 -82.1078 145° Southeast 297 342 7,700 -1,500 Descending Miami Center
04:18PM 26.5097 -82.0586 144° Southeast 291 335 6,200 -1,380 Descending Miami Center
04:19PM 26.4489 -82.0097 128° Southeast 278 320 5,000 -660 Descending Miami Center
04:20PM 26.4011 -81.9425 52° Northeast 278 320 5,000  Level Miami Center
04:27PM 26.5333 -81.7500 52° Northeast  Level FlightAware Approximate